sensor_id;sensor_type;location;lat;lon;timestamp;P1;durP1;ratioP1;P2;durP2;ratioP2
64875;SDS011;51369;49.862;9.908;2022-10-17T00:00:03;10.18;;;4.32;;
64875;SDS011;51369;49.862;9.908;2022-10-17T00:02:30;9.98;;;3.40;;
64875;SDS011;51369;49.862;9.908;2022-10-17T00:04:56;12.50;;;3.33;;
64875;SDS011;51369;49.862;9.908;2022-10-17T00:07:21;9.55;;;2.95;;
64875;SDS011;51369;49.862;9.908;2022-10-17T00:09:46;4.43;;;3.00;;
64875;SDS011;51369;49.862;9.908;2022-10-17T00:12:12;9.13;;;3.17;;
64875;SDS011;51369;49.862;9.908;2022-10-17T00:14:37;11.63;;;2.92;;
64875;SDS011;51369;49.862;9.908;2022-10-17T00:17:03;9.70;;;2.88;;
64875;SDS011;51369;49.862;9.908;2022-10-17T00:19:28;15.60;;;3.38;;
64875;SDS011;51369;49.862;9.908;2022-10-17T00:21:54;8.30;;;3.80;;
64875;SDS011;51369;49.862;9.908;2022-10-17T00:24:19;5.38;;;3.40;;
64875;SDS011;51369;49.862;9.908;2022-10-17T00:26:44;8.65;;;4.53;;
64875;SDS011;51369;49.862;9.908;2022-10-17T00:29:10;6.38;;;3.47;;
64875;SDS011;51369;49.862;9.908;2022-10-17T00:31:35;11.95;;;4.55;;
64875;SDS011;51369;49.862;9.908;2022-10-17T00:34:00;8.15;;;3.35;;
64875;SDS011;51369;49.862;9.908;2022-10-17T00:36:27;9.85;;;3.10;;
64875;SDS011;51369;49.862;9.908;2022-10-17T00:38:57;12.43;;;2.95;;
64875;SDS011;51369;49.862;9.908;2022-10-17T00:41:24;16.08;;;2.50;;
64875;SDS011;51369;49.862;9.908;2022-10-17T00:43:53;6.18;;;3.22;;
64875;SDS011;51369;49.862;9.908;2022-10-17T00:46:22;6.90;;;3.00;;
64875;SDS011;51369;49.862;9.908;2022-10-17T00:48:51;19.75;;;3.47;;
64875;SDS011;51369;49.862;9.908;2022-10-17T00:51:18;10.55;;;3.40;;
64875;SDS011;51369;49.862;9.908;2022-10-17T00:53:46;9.63;;;2.80;;
64875;SDS011;51369;49.862;9.908;2022-10-17T00:56:13;5.88;;;3.25;;
64875;SDS011;51369;49.862;9.908;2022-10-17T00:58:39;10.82;;;2.80;;
64875;SDS011;51369;49.862;9.908;2022-10-17T01:01:04;11.23;;;2.72;;
64875;SDS011;51369;49.862;9.908;2022-10-17T01:03:30;6.07;;;2.58;;
64875;SDS011;51369;49.862;9.908;2022-10-17T01:05:55;12.38;;;2.83;;
64875;SDS011;51369;49.862;9.908;2022-10-17T01:08:21;8.55;;;2.47;;
64875;SDS011;51369;49.862;9.908;2022-10-17T01:10:51;11.82;;;3.08;;
64875;SDS011;51369;49.862;9.908;2022-10-17T01:13:24;9.48;;;3.58;;
64875;SDS011;51369;49.862;9.908;2022-10-17T01:32:39;11.77;;;2.95;;
64875;SDS011;51369;49.862;9.908;2022-10-17T01:35:25;8.32;;;2.65;;
64875;SDS011;51369;49.862;9.908;2022-10-17T01:38:01;7.43;;;2.83;;
64875;SDS011;51369;49.862;9.908;2022-10-17T01:43:20;4.47;;;2.67;;
64875;SDS011;51369;49.862;9.908;2022-10-17T01:45:54;8.38;;;2.72;;
64875;SDS011;51369;49.862;9.908;2022-10-17T01:48:29;6.30;;;2.63;;
64875;SDS011;51369;49.862;9.908;2022-10-17T01:51:24;3.40;;;2.80;;
64875;SDS011;51369;49.862;9.908;2022-10-17T01:53:56;8.00;;;2.95;;
64875;SDS011;51369;49.862;9.908;2022-10-17T01:56:26;6.65;;;2.70;;
64875;SDS011;51369;49.862;9.908;2022-10-17T01:58:57;7.75;;;2.60;;
64875;SDS011;51369;49.862;9.908;2022-10-17T02:01:29;28.58;;;5.38;;
64875;SDS011;51369;49.862;9.908;2022-10-17T02:03:58;7.10;;;3.00;;
64875;SDS011;51369;49.862;9.908;2022-10-17T02:06:26;5.75;;;3.00;;
64875;SDS011;51369;49.862;9.908;2022-10-17T02:08:52;11.20;;;2.90;;
64875;SDS011;51369;49.862;9.908;2022-10-17T02:11:22;7.13;;;2.78;;
64875;SDS011;51369;49.862;9.908;2022-10-17T02:13:58;7.13;;;3.60;;
64875;SDS011;51369;49.862;9.908;2022-10-17T02:16:40;4.03;;;2.92;;
64875;SDS011;51369;49.862;9.908;2022-10-17T02:22:24;8.55;;;2.95;;
64875;SDS011;51369;49.862;9.908;2022-10-17T02:25:09;7.32;;;2.97;;
64875;SDS011;51369;49.862;9.908;2022-10-17T02:27:52;8.02;;;2.83;;
64875;SDS011;51369;49.862;9.908;2022-10-17T02:30:48;7.05;;;2.97;;
64875;SDS011;51369;49.862;9.908;2022-10-17T02:33:26;17.00;;;4.65;;
64875;SDS011;51369;49.862;9.908;2022-10-17T02:35:59;17.55;;;7.75;;
64875;SDS011;51369;49.862;9.908;2022-10-17T02:38:29;11.43;;;5.95;;
64875;SDS011;51369;49.862;9.908;2022-10-17T02:40:56;13.40;;;8.60;;
64875;SDS011;51369;49.862;9.908;2022-10-17T02:43:21;14.10;;;6.80;;
64875;SDS011;51369;49.862;9.908;2022-10-17T02:45:50;10.68;;;5.80;;
64875;SDS011;51369;49.862;9.908;2022-10-17T02:48:18;11.60;;;4.80;;
64875;SDS011;51369;49.862;9.908;2022-10-17T02:53:49;7.28;;;3.75;;
64875;SDS011;51369;49.862;9.908;2022-10-17T02:56:23;16.52;;;4.60;;
64875;SDS011;51369;49.862;9.908;2022-10-17T02:58:53;11.93;;;4.25;;
64875;SDS011;51369;49.862;9.908;2022-10-17T03:01:26;11.90;;;4.15;;
64875;SDS011;51369;49.862;9.908;2022-10-17T03:04:03;9.85;;;4.68;;
64875;SDS011;51369;49.862;9.908;2022-10-17T03:06:35;5.57;;;4.85;;
64875;SDS011;51369;49.862;9.908;2022-10-17T03:09:01;7.60;;;5.22;;
64875;SDS011;51369;49.862;9.908;2022-10-17T03:11:28;8.07;;;4.80;;
64875;SDS011;51369;49.862;9.908;2022-10-17T03:13:53;8.25;;;5.32;;
64875;SDS011;51369;49.862;9.908;2022-10-17T03:16:19;13.52;;;5.28;;
64875;SDS011;51369;49.862;9.908;2022-10-17T03:18:45;8.85;;;4.80;;
64875;SDS011;51369;49.862;9.908;2022-10-17T03:21:11;8.93;;;4.20;;
64875;SDS011;51369;49.862;9.908;2022-10-17T03:23:36;13.90;;;4.53;;
64875;SDS011;51369;49.862;9.908;2022-10-17T03:26:04;11.27;;;5.03;;
64875;SDS011;51369;49.862;9.908;2022-10-17T03:28:32;10.50;;;4.90;;
64875;SDS011;51369;49.862;9.908;2022-10-17T03:30:57;13.85;;;4.32;;
64875;SDS011;51369;49.862;9.908;2022-10-17T03:33:23;8.48;;;3.92;;
64875;SDS011;51369;49.862;9.908;2022-10-17T03:35:48;5.63;;;4.00;;
64875;SDS011;51369;49.862;9.908;2022-10-17T03:38:14;20.25;;;6.10;;
64875;SDS011;51369;49.862;9.908;2022-10-17T03:40:40;5.13;;;4.30;;
64875;SDS011;51369;49.862;9.908;2022-10-17T03:43:05;6.20;;;4.28;;
64875;SDS011;51369;49.862;9.908;2022-10-17T03:45:31;6.10;;;4.03;;
64875;SDS011;51369;49.862;9.908;2022-10-17T03:47:59;14.82;;;4.15;;
64875;SDS011;51369;49.862;9.908;2022-10-17T03:50:25;10.55;;;4.00;;
64875;SDS011;51369;49.862;9.908;2022-10-17T03:52:51;5.78;;;2.90;;
64875;SDS011;51369;49.862;9.908;2022-10-17T03:55:17;9.05;;;2.78;;
64875;SDS011;51369;49.862;9.908;2022-10-17T03:57:42;10.05;;;2.92;;
64875;SDS011;51369;49.862;9.908;2022-10-17T04:00:08;8.00;;;3.47;;
64875;SDS011;51369;49.862;9.908;2022-10-17T04:02:39;6.75;;;2.97;;
64875;SDS011;51369;49.862;9.908;2022-10-17T04:05:06;15.50;;;3.20;;
64875;SDS011;51369;49.862;9.908;2022-10-17T04:07:32;16.52;;;3.05;;
64875;SDS011;51369;49.862;9.908;2022-10-17T04:09:57;14.98;;;2.70;;
64875;SDS011;51369;49.862;9.908;2022-10-17T04:12:22;9.95;;;2.80;;
64875;SDS011;51369;49.862;9.908;2022-10-17T04:14:48;5.38;;;2.97;;
64875;SDS011;51369;49.862;9.908;2022-10-17T04:17:15;5.88;;;3.15;;
64875;SDS011;51369;49.862;9.908;2022-10-17T04:19:40;10.23;;;4.28;;
64875;SDS011;51369;49.862;9.908;2022-10-17T04:22:06;4.97;;;3.42;;
64875;SDS011;51369;49.862;9.908;2022-10-17T04:24:35;15.38;;;3.17;;
64875;SDS011;51369;49.862;9.908;2022-10-17T04:27:08;8.50;;;2.85;;
64875;SDS011;51369;49.862;9.908;2022-10-17T04:29:37;8.15;;;3.35;;
64875;SDS011;51369;49.862;9.908;2022-10-17T04:32:23;10.27;;;4.05;;
64875;SDS011;51369;49.862;9.908;2022-10-17T04:35:04;7.68;;;3.53;;
64875;SDS011;51369;49.862;9.908;2022-10-17T04:37:30;9.02;;;4.20;;
64875;SDS011;51369;49.862;9.908;2022-10-17T04:39:56;10.43;;;3.60;;
64875;SDS011;51369;49.862;9.908;2022-10-17T04:42:21;7.20;;;3.90;;
64875;SDS011;51369;49.862;9.908;2022-10-17T04:44:49;6.50;;;4.50;;
64875;SDS011;51369;49.862;9.908;2022-10-17T04:47:16;15.32;;;4.10;;
64875;SDS011;51369;49.862;9.908;2022-10-17T04:49:42;9.55;;;4.05;;
64875;SDS011;51369;49.862;9.908;2022-10-17T04:52:09;6.47;;;3.83;;
64875;SDS011;51369;49.862;9.908;2022-10-17T04:54:47;7.25;;;4.53;;
64875;SDS011;51369;49.862;9.908;2022-10-17T04:57:12;12.93;;;4.78;;
64875;SDS011;51369;49.862;9.908;2022-10-17T04:59:40;7.82;;;4.05;;
64875;SDS011;51369;49.862;9.908;2022-10-17T05:02:26;11.57;;;5.68;;
64875;SDS011;51369;49.862;9.908;2022-10-17T05:04:51;10.00;;;6.40;;
64875;SDS011;51369;49.862;9.908;2022-10-17T05:07:17;16.42;;;5.15;;
64875;SDS011;51369;49.862;9.908;2022-10-17T05:09:54;13.90;;;6.00;;
64875;SDS011;51369;49.862;9.908;2022-10-17T05:12:21;16.30;;;5.90;;
64875;SDS011;51369;49.862;9.908;2022-10-17T05:14:47;15.73;;;5.47;;
64875;SDS011;51369;49.862;9.908;2022-10-17T05:17:12;15.52;;;5.35;;
64875;SDS011;51369;49.862;9.908;2022-10-17T05:19:38;8.05;;;4.75;;
64875;SDS011;51369;49.862;9.908;2022-10-17T05:22:04;17.48;;;4.45;;
64875;SDS011;51369;49.862;9.908;2022-10-17T05:24:31;5.50;;;3.97;;
64875;SDS011;51369;49.862;9.908;2022-10-17T05:26:57;5.53;;;4.10;;
64875;SDS011;51369;49.862;9.908;2022-10-17T05:29:23;13.65;;;4.63;;
64875;SDS011;51369;49.862;9.908;2022-10-17T05:31:53;9.25;;;4.35;;
64875;SDS011;51369;49.862;9.908;2022-10-17T05:34:19;9.30;;;4.25;;
64875;SDS011;51369;49.862;9.908;2022-10-17T05:36:44;4.90;;;4.22;;
64875;SDS011;51369;49.862;9.908;2022-10-17T05:39:12;10.48;;;4.57;;
64875;SDS011;51369;49.862;9.908;2022-10-17T05:41:39;8.52;;;4.47;;
64875;SDS011;51369;49.862;9.908;2022-10-17T05:44:05;9.55;;;3.90;;
64875;SDS011;51369;49.862;9.908;2022-10-17T05:46:38;9.38;;;4.32;;
64875;SDS011;51369;49.862;9.908;2022-10-17T05:49:04;10.80;;;3.92;;
64875;SDS011;51369;49.862;9.908;2022-10-17T05:51:32;13.15;;;4.00;;
64875;SDS011;51369;49.862;9.908;2022-10-17T05:53:59;9.88;;;4.78;;
64875;SDS011;51369;49.862;9.908;2022-10-17T05:56:27;16.20;;;5.70;;
64875;SDS011;51369;49.862;9.908;2022-10-17T05:58:53;8.07;;;3.70;;
64875;SDS011;51369;49.862;9.908;2022-10-17T06:01:37;9.38;;;3.40;;
64875;SDS011;51369;49.862;9.908;2022-10-17T06:04:03;13.90;;;4.18;;
64875;SDS011;51369;49.862;9.908;2022-10-17T06:06:29;6.22;;;3.63;;
64875;SDS011;51369;49.862;9.908;2022-10-17T06:08:55;7.97;;;3.85;;
64875;SDS011;51369;49.862;9.908;2022-10-17T06:11:26;10.17;;;3.83;;
64875;SDS011;51369;49.862;9.908;2022-10-17T06:13:52;8.57;;;3.50;;
64875;SDS011;51369;49.862;9.908;2022-10-17T06:16:22;17.52;;;3.90;;
64875;SDS011;51369;49.862;9.908;2022-10-17T06:18:47;12.02;;;3.67;;
64875;SDS011;51369;49.862;9.908;2022-10-17T06:21:22;23.38;;;4.60;;
64875;SDS011;51369;49.862;9.908;2022-10-17T06:23:50;9.57;;;4.07;;
64875;SDS011;51369;49.862;9.908;2022-10-17T06:26:30;8.25;;;3.60;;
64875;SDS011;51369;49.862;9.908;2022-10-17T06:28:55;9.32;;;4.70;;
64875;SDS011;51369;49.862;9.908;2022-10-17T06:31:21;7.90;;;4.68;;
64875;SDS011;51369;49.862;9.908;2022-10-17T06:33:46;8.98;;;4.00;;
64875;SDS011;51369;49.862;9.908;2022-10-17T06:36:12;8.38;;;4.43;;
64875;SDS011;51369;49.862;9.908;2022-10-17T06:38:39;5.70;;;4.32;;
64875;SDS011;51369;49.862;9.908;2022-10-17T06:41:14;18.52;;;5.28;;
64875;SDS011;51369;49.862;9.908;2022-10-17T06:43:42;5.57;;;4.38;;
64875;SDS011;51369;49.862;9.908;2022-10-17T06:46:36;10.93;;;4.65;;
64875;SDS011;51369;49.862;9.908;2022-10-17T06:49:05;24.02;;;5.05;;
64875;SDS011;51369;49.862;9.908;2022-10-17T06:51:41;8.55;;;4.25;;
64875;SDS011;51369;49.862;9.908;2022-10-17T06:54:10;5.93;;;4.45;;
64875;SDS011;51369;49.862;9.908;2022-10-17T06:56:53;10.68;;;5.25;;
64875;SDS011;51369;49.862;9.908;2022-10-17T06:59:29;13.00;;;5.10;;
64875;SDS011;51369;49.862;9.908;2022-10-17T07:02:02;11.95;;;4.68;;
64875;SDS011;51369;49.862;9.908;2022-10-17T07:04:29;9.27;;;4.75;;
64875;SDS011;51369;49.862;9.908;2022-10-17T07:06:55;5.50;;;4.22;;
64875;SDS011;51369;49.862;9.908;2022-10-17T07:09:24;6.30;;;4.50;;
64875;SDS011;51369;49.862;9.908;2022-10-17T07:11:50;20.67;;;4.95;;
64875;SDS011;51369;49.862;9.908;2022-10-17T07:14:17;12.18;;;5.30;;
64875;SDS011;51369;49.862;9.908;2022-10-17T07:16:42;10.23;;;5.47;;
64875;SDS011;51369;49.862;9.908;2022-10-17T07:19:14;11.07;;;5.70;;
64875;SDS011;51369;49.862;9.908;2022-10-17T07:21:39;12.02;;;5.97;;
64875;SDS011;51369;49.862;9.908;2022-10-17T07:24:07;11.35;;;6.25;;
64875;SDS011;51369;49.862;9.908;2022-10-17T07:26:33;15.60;;;6.35;;
64875;SDS011;51369;49.862;9.908;2022-10-17T07:28:59;14.30;;;6.60;;
64875;SDS011;51369;49.862;9.908;2022-10-17T07:31:31;18.20;;;6.28;;
64875;SDS011;51369;49.862;9.908;2022-10-17T07:33:58;14.07;;;5.63;;
64875;SDS011;51369;49.862;9.908;2022-10-17T07:36:24;11.52;;;6.40;;
64875;SDS011;51369;49.862;9.908;2022-10-17T07:38:50;16.15;;;6.88;;
64875;SDS011;51369;49.862;9.908;2022-10-17T07:41:17;11.88;;;6.18;;
64875;SDS011;51369;49.862;9.908;2022-10-17T07:43:44;19.65;;;8.23;;
64875;SDS011;51369;49.862;9.908;2022-10-17T07:46:09;12.07;;;7.38;;
64875;SDS011;51369;49.862;9.908;2022-10-17T07:48:36;10.98;;;7.28;;
64875;SDS011;51369;49.862;9.908;2022-10-17T07:51:05;12.68;;;7.18;;
64875;SDS011;51369;49.862;9.908;2022-10-17T07:53:35;16.10;;;8.52;;
64875;SDS011;51369;49.862;9.908;2022-10-17T07:56:02;15.18;;;8.73;;
64875;SDS011;51369;49.862;9.908;2022-10-17T07:58:29;19.63;;;8.98;;
64875;SDS011;51369;49.862;9.908;2022-10-17T08:00:59;13.82;;;8.68;;
64875;SDS011;51369;49.862;9.908;2022-10-17T08:03:25;11.15;;;8.55;;
64875;SDS011;51369;49.862;9.908;2022-10-17T08:05:50;15.27;;;9.75;;
64875;SDS011;51369;49.862;9.908;2022-10-17T08:08:16;18.30;;;8.82;;
64875;SDS011;51369;49.862;9.908;2022-10-17T08:10:41;20.73;;;10.07;;
64875;SDS011;51369;49.862;9.908;2022-10-17T08:13:07;21.13;;;10.45;;
64875;SDS011;51369;49.862;9.908;2022-10-17T08:15:32;20.00;;;10.65;;
64875;SDS011;51369;49.862;9.908;2022-10-17T08:17:58;25.15;;;12.32;;
64875;SDS011;51369;49.862;9.908;2022-10-17T08:20:23;21.02;;;11.63;;
64875;SDS011;51369;49.862;9.908;2022-10-17T08:22:52;22.10;;;10.77;;
64875;SDS011;51369;49.862;9.908;2022-10-17T08:25:18;20.52;;;11.77;;
64875;SDS011;51369;49.862;9.908;2022-10-17T08:27:44;18.60;;;12.60;;
64875;SDS011;51369;49.862;9.908;2022-10-17T08:30:09;24.58;;;12.23;;
64875;SDS011;51369;49.862;9.908;2022-10-17T08:32:35;27.05;;;12.38;;
64875;SDS011;51369;49.862;9.908;2022-10-17T08:35:01;19.95;;;13.18;;
64875;SDS011;51369;49.862;9.908;2022-10-17T08:37:26;28.33;;;13.63;;
64875;SDS011;51369;49.862;9.908;2022-10-17T08:39:54;35.70;;;14.48;;
64875;SDS011;51369;49.862;9.908;2022-10-17T08:44:56;20.20;;;12.67;;
64875;SDS011;51369;49.862;9.908;2022-10-17T08:47:48;22.63;;;12.00;;
64875;SDS011;51369;49.862;9.908;2022-10-17T08:50:34;20.27;;;12.07;;
64875;SDS011;51369;49.862;9.908;2022-10-17T08:58:45;25.67;;;13.05;;
64875;SDS011;51369;49.862;9.908;2022-10-17T09:06:31;17.42;;;11.57;;
64875;SDS011;51369;49.862;9.908;2022-10-17T09:09:24;20.00;;;11.15;;
64875;SDS011;51369;49.862;9.908;2022-10-17T09:12:11;17.42;;;11.57;;
64875;SDS011;51369;49.862;9.908;2022-10-17T09:15:49;24.08;;;11.70;;
64875;SDS011;51369;49.862;9.908;2022-10-17T09:23:20;18.30;;;10.07;;
64875;SDS011;51369;49.862;9.908;2022-10-17T09:25:52;20.95;;;11.15;;
64875;SDS011;51369;49.862;9.908;2022-10-17T09:28:32;19.30;;;12.05;;
64875;SDS011;51369;49.862;9.908;2022-10-17T09:34:00;18.75;;;12.10;;
64875;SDS011;51369;49.862;9.908;2022-10-17T09:36:28;15.20;;;10.77;;
64875;SDS011;51369;49.862;9.908;2022-10-17T09:38:55;20.75;;;11.43;;
64875;SDS011;51369;49.862;9.908;2022-10-17T09:44:22;26.08;;;11.98;;
64875;SDS011;51369;49.862;9.908;2022-10-17T09:47:08;19.08;;;10.85;;
64875;SDS011;51369;49.862;9.908;2022-10-17T09:49:46;18.20;;;10.25;;
64875;SDS011;51369;49.862;9.908;2022-10-17T09:52:17;16.35;;;9.20;;
64875;SDS011;51369;49.862;9.908;2022-10-17T09:54:53;12.20;;;9.25;;
64875;SDS011;51369;49.862;9.908;2022-10-17T09:57:23;15.13;;;8.35;;
64875;SDS011;51369;49.862;9.908;2022-10-17T09:59:57;11.95;;;8.00;;
64875;SDS011;51369;49.862;9.908;2022-10-17T10:02:24;18.15;;;9.05;;
64875;SDS011;51369;49.862;9.908;2022-10-17T10:07:26;19.05;;;7.05;;
64875;SDS011;51369;49.862;9.908;2022-10-17T10:09:54;9.45;;;7.20;;
64875;SDS011;51369;49.862;9.908;2022-10-17T10:12:23;10.10;;;7.97;;
64875;SDS011;51369;49.862;9.908;2022-10-17T10:14:50;11.80;;;8.80;;
64875;SDS011;51369;49.862;9.908;2022-10-17T10:20:03;13.25;;;6.78;;
64875;SDS011;51369;49.862;9.908;2022-10-17T10:23:06;8.38;;;4.68;;
64875;SDS011;51369;49.862;9.908;2022-10-17T10:25:32;7.30;;;4.85;;
64875;SDS011;51369;49.862;9.908;2022-10-17T10:27:59;7.53;;;4.40;;
64875;SDS011;51369;49.862;9.908;2022-10-17T10:30:29;8.85;;;4.20;;
64875;SDS011;51369;49.862;9.908;2022-10-17T10:32:55;7.60;;;4.20;;
64875;SDS011;51369;49.862;9.908;2022-10-17T10:35:34;12.82;;;4.20;;
64875;SDS011;51369;49.862;9.908;2022-10-17T10:38:01;7.60;;;4.05;;
64875;SDS011;51369;49.862;9.908;2022-10-17T10:40:37;5.32;;;3.35;;
64875;SDS011;51369;49.862;9.908;2022-10-17T10:43:18;11.93;;;3.88;;
64875;SDS011;51369;49.862;9.908;2022-10-17T10:45:47;7.72;;;3.70;;
64875;SDS011;51369;49.862;9.908;2022-10-17T10:50:46;8.07;;;3.38;;
64875;SDS011;51369;49.862;9.908;2022-10-17T10:53:32;6.63;;;3.58;;
64875;SDS011;51369;49.862;9.908;2022-10-17T11:06:38;3.85;;;2.70;;
64875;SDS011;51369;49.862;9.908;2022-10-17T11:09:16;7.10;;;2.95;;
64875;SDS011;51369;49.862;9.908;2022-10-17T11:11:53;6.53;;;2.50;;
64875;SDS011;51369;49.862;9.908;2022-10-17T11:20:20;9.13;;;2.63;;
64875;SDS011;51369;49.862;9.908;2022-10-17T11:22:39;5.22;;;2.85;;
64875;SDS011;51369;49.862;9.908;2022-10-17T11:28:00;8.20;;;2.58;;
64875;SDS011;51369;49.862;9.908;2022-10-17T11:30:38;8.35;;;2.72;;
64875;SDS011;51369;49.862;9.908;2022-10-17T11:33:09;3.70;;;2.60;;
64875;SDS011;51369;49.862;9.908;2022-10-17T11:35:42;6.78;;;2.63;;
64875;SDS011;51369;49.862;9.908;2022-10-17T11:38:21;4.65;;;2.45;;
64875;SDS011;51369;49.862;9.908;2022-10-17T11:41:03;18.63;;;3.22;;
64875;SDS011;51369;49.862;9.908;2022-10-17T11:46:11;7.43;;;2.97;;
64875;SDS011;51369;49.862;9.908;2022-10-17T11:48:55;8.63;;;2.53;;
64875;SDS011;51369;49.862;9.908;2022-10-17T11:51:22;4.22;;;2.30;;
64875;SDS011;51369;49.862;9.908;2022-10-17T11:53:55;4.90;;;2.60;;
64875;SDS011;51369;49.862;9.908;2022-10-17T11:56:31;5.18;;;2.28;;
64875;SDS011;51369;49.862;9.908;2022-10-17T12:01:37;10.93;;;2.50;;
64875;SDS011;51369;49.862;9.908;2022-10-17T12:04:16;7.75;;;3.28;;
64875;SDS011;51369;49.862;9.908;2022-10-17T12:07:13;5.53;;;2.65;;
64875;SDS011;51369;49.862;9.908;2022-10-17T12:12:32;4.88;;;2.63;;
64875;SDS011;51369;49.862;9.908;2022-10-17T12:15:26;6.22;;;2.40;;
64875;SDS011;51369;49.862;9.908;2022-10-17T12:17:59;10.63;;;2.65;;
64875;SDS011;51369;49.862;9.908;2022-10-17T12:20:28;5.68;;;2.78;;
64875;SDS011;51369;49.862;9.908;2022-10-17T12:22:56;3.92;;;2.22;;
64875;SDS011;51369;49.862;9.908;2022-10-17T12:25:33;4.40;;;2.20;;
64875;SDS011;51369;49.862;9.908;2022-10-17T12:31:04;8.55;;;2.03;;
64875;SDS011;51369;49.862;9.908;2022-10-17T12:54:47;5.97;;;1.98;;
64875;SDS011;51369;49.862;9.908;2022-10-17T12:57:29;7.65;;;2.35;;
64875;SDS011;51369;49.862;9.908;2022-10-17T12:59:59;2.63;;;2.10;;
64875;SDS011;51369;49.862;9.908;2022-10-17T13:02:29;8.23;;;2.25;;
64875;SDS011;51369;49.862;9.908;2022-10-17T13:04:58;8.82;;;2.50;;
64875;SDS011;51369;49.862;9.908;2022-10-17T13:07:30;4.10;;;2.00;;
64875;SDS011;51369;49.862;9.908;2022-10-17T13:09:58;5.68;;;1.73;;
64875;SDS011;51369;49.862;9.908;2022-10-17T13:12:28;4.40;;;2.10;;
64875;SDS011;51369;49.862;9.908;2022-10-17T13:14:58;4.30;;;2.00;;
64875;SDS011;51369;49.862;9.908;2022-10-17T13:17:25;3.72;;;2.13;;
64875;SDS011;51369;49.862;9.908;2022-10-17T13:19:53;5.72;;;2.00;;
64875;SDS011;51369;49.862;9.908;2022-10-17T13:22:21;5.72;;;2.30;;
64875;SDS011;51369;49.862;9.908;2022-10-17T13:25:03;2.83;;;1.75;;
64875;SDS011;51369;49.862;9.908;2022-10-17T13:27:32;5.72;;;2.25;;
64875;SDS011;51369;49.862;9.908;2022-10-17T13:29:59;2.50;;;2.00;;
64875;SDS011;51369;49.862;9.908;2022-10-17T13:32:34;5.53;;;2.15;;
64875;SDS011;51369;49.862;9.908;2022-10-17T13:35:08;6.05;;;2.00;;
64875;SDS011;51369;49.862;9.908;2022-10-17T13:37:35;2.60;;;1.80;;
64875;SDS011;51369;49.862;9.908;2022-10-17T13:40:01;3.17;;;2.13;;
64875;SDS011;51369;49.862;9.908;2022-10-17T13:42:28;4.32;;;1.75;;
64875;SDS011;51369;49.862;9.908;2022-10-17T13:45:00;6.43;;;2.22;;
64875;SDS011;51369;49.862;9.908;2022-10-17T13:47:27;3.53;;;1.90;;
64875;SDS011;51369;49.862;9.908;2022-10-17T13:49:55;4.40;;;1.90;;
64875;SDS011;51369;49.862;9.908;2022-10-17T13:52:25;8.88;;;2.17;;
64875;SDS011;51369;49.862;9.908;2022-10-17T13:54:53;6.32;;;2.15;;
64875;SDS011;51369;49.862;9.908;2022-10-17T14:00:05;10.88;;;2.10;;
64875;SDS011;51369;49.862;9.908;2022-10-17T14:02:39;6.25;;;2.10;;
64875;SDS011;51369;49.862;9.908;2022-10-17T14:07:36;2.08;;;1.88;;
64875;SDS011;51369;49.862;9.908;2022-10-17T14:10:04;9.45;;;2.38;;
64875;SDS011;51369;49.862;9.908;2022-10-17T14:12:41;7.63;;;2.38;;
64875;SDS011;51369;49.862;9.908;2022-10-17T14:15:08;5.90;;;1.95;;
64875;SDS011;51369;49.862;9.908;2022-10-17T14:17:38;6.80;;;2.33;;
64875;SDS011;51369;49.862;9.908;2022-10-17T14:20:04;7.65;;;1.90;;
64875;SDS011;51369;49.862;9.908;2022-10-17T14:22:35;3.88;;;2.08;;
64875;SDS011;51369;49.862;9.908;2022-10-17T14:25:01;9.23;;;2.47;;
64875;SDS011;51369;49.862;9.908;2022-10-17T14:29:58;3.78;;;1.88;;
64875;SDS011;51369;49.862;9.908;2022-10-17T14:32:27;8.05;;;2.08;;
64875;SDS011;51369;49.862;9.908;2022-10-17T14:34:55;3.55;;;1.98;;
64875;SDS011;51369;49.862;9.908;2022-10-17T14:40:13;5.38;;;2.10;;
64875;SDS011;51369;49.862;9.908;2022-10-17T14:42:41;8.18;;;2.35;;
64875;SDS011;51369;49.862;9.908;2022-10-17T14:45:10;3.63;;;2.17;;
64875;SDS011;51369;49.862;9.908;2022-10-17T14:47:38;6.32;;;2.35;;
64875;SDS011;51369;49.862;9.908;2022-10-17T14:50:06;6.22;;;2.10;;
64875;SDS011;51369;49.862;9.908;2022-10-17T14:52:57;4.20;;;2.10;;
64875;SDS011;51369;49.862;9.908;2022-10-17T14:55:30;4.25;;;2.15;;
64875;SDS011;51369;49.862;9.908;2022-10-17T14:57:57;3.20;;;1.73;;
64875;SDS011;51369;49.862;9.908;2022-10-17T15:00:22;2.83;;;2.00;;
64875;SDS011;51369;49.862;9.908;2022-10-17T15:02:49;6.05;;;2.88;;
64875;SDS011;51369;49.862;9.908;2022-10-17T15:05:16;6.00;;;2.20;;
64875;SDS011;51369;49.862;9.908;2022-10-17T15:07:43;5.72;;;2.10;;
64875;SDS011;51369;49.862;9.908;2022-10-17T15:13:08;9.65;;;2.40;;
64875;SDS011;51369;49.862;9.908;2022-10-17T15:15:35;10.90;;;2.30;;
64875;SDS011;51369;49.862;9.908;2022-10-17T15:18:02;5.60;;;2.45;;
64875;SDS011;51369;49.862;9.908;2022-10-17T15:20:28;4.70;;;2.40;;
64875;SDS011;51369;49.862;9.908;2022-10-17T15:22:55;4.00;;;1.80;;
64875;SDS011;51369;49.862;9.908;2022-10-17T15:25:22;5.80;;;2.05;;
64875;SDS011;51369;49.862;9.908;2022-10-17T15:27:48;5.43;;;1.90;;
64875;SDS011;51369;49.862;9.908;2022-10-17T15:30:23;7.50;;;2.90;;
64875;SDS011;51369;49.862;9.908;2022-10-17T15:32:53;13.23;;;2.95;;
64875;SDS011;51369;49.862;9.908;2022-10-17T15:35:20;4.63;;;2.35;;
64875;SDS011;51369;49.862;9.908;2022-10-17T15:37:46;10.35;;;2.15;;
64875;SDS011;51369;49.862;9.908;2022-10-17T15:40:14;5.55;;;2.58;;
64875;SDS011;51369;49.862;9.908;2022-10-17T15:42:41;7.28;;;2.22;;
64875;SDS011;51369;49.862;9.908;2022-10-17T15:45:07;5.82;;;2.20;;
64875;SDS011;51369;49.862;9.908;2022-10-17T15:47:35;4.07;;;2.30;;
64875;SDS011;51369;49.862;9.908;2022-10-17T15:50:01;5.13;;;2.35;;
64875;SDS011;51369;49.862;9.908;2022-10-17T15:52:27;6.70;;;2.20;;
64875;SDS011;51369;49.862;9.908;2022-10-17T15:54:53;5.53;;;2.25;;
64875;SDS011;51369;49.862;9.908;2022-10-17T15:57:22;5.95;;;2.10;;
64875;SDS011;51369;49.862;9.908;2022-10-17T15:59:50;5.18;;;2.70;;
64875;SDS011;51369;49.862;9.908;2022-10-17T16:02:17;4.15;;;2.30;;
64875;SDS011;51369;49.862;9.908;2022-10-17T16:04:43;3.88;;;2.30;;
64875;SDS011;51369;49.862;9.908;2022-10-17T16:07:09;6.97;;;2.15;;
64875;SDS011;51369;49.862;9.908;2022-10-17T16:09:35;8.30;;;2.63;;
64875;SDS011;51369;49.862;9.908;2022-10-17T16:12:02;4.60;;;2.00;;
64875;SDS011;51369;49.862;9.908;2022-10-17T16:14:29;7.80;;;2.40;;
64875;SDS011;51369;49.862;9.908;2022-10-17T16:16:56;9.35;;;2.30;;
64875;SDS011;51369;49.862;9.908;2022-10-17T16:19:25;4.55;;;2.40;;
64875;SDS011;51369;49.862;9.908;2022-10-17T16:21:54;9.38;;;2.72;;
64875;SDS011;51369;49.862;9.908;2022-10-17T16:24:21;6.13;;;2.78;;
64875;SDS011;51369;49.862;9.908;2022-10-17T16:26:47;9.27;;;3.22;;
64875;SDS011;51369;49.862;9.908;2022-10-17T16:29:13;5.20;;;2.10;;
64875;SDS011;51369;49.862;9.908;2022-10-17T16:31:39;5.85;;;2.50;;
64875;SDS011;51369;49.862;9.908;2022-10-17T16:34:07;5.68;;;2.28;;
64875;SDS011;51369;49.862;9.908;2022-10-17T16:36:35;6.05;;;2.75;;
64875;SDS011;51369;49.862;9.908;2022-10-17T16:39:00;5.45;;;2.70;;
64875;SDS011;51369;49.862;9.908;2022-10-17T16:41:27;7.72;;;3.03;;
64875;SDS011;51369;49.862;9.908;2022-10-17T16:43:56;6.15;;;3.20;;
64875;SDS011;51369;49.862;9.908;2022-10-17T16:46:23;5.47;;;2.95;;
64875;SDS011;51369;49.862;9.908;2022-10-17T16:48:49;8.73;;;2.80;;
64875;SDS011;51369;49.862;9.908;2022-10-17T16:51:16;8.77;;;3.00;;
64875;SDS011;51369;49.862;9.908;2022-10-17T16:53:43;5.55;;;3.03;;
64875;SDS011;51369;49.862;9.908;2022-10-17T16:56:10;8.43;;;2.88;;
64875;SDS011;51369;49.862;9.908;2022-10-17T16:58:38;19.50;;;11.02;;